• Join FlightAware (Why Join?)
  • Login
  • US Flag 
12:15PM EDT


 

Airport Tracker/Info


-or-


 

Live Flight TrackerFlight Track Log ✈ QTR38 ✈ 18-Apr-2013 ✈ LIMC / MXP - OTBD / DOH

Flight Track Log - Related Links

Times and Time Zones

All times are in EDT time to prevent confusion due to time zone crossing. See the QTR38 flight status page for this flight to view local times or setup timezone preferences in your user account.

Time Position Orientation Groundspeed Altitude Reporting Facility
EDT Latitude Longitude Course Direction KTS MPH feet Rate Location/Type
04:23PM 45.6590 8.7300 356° North 176 203 1,900  Level FlightAware
04:23PM 45.6810 8.7300 360° North 193 222 2,400 1,200 Climbing FlightAware
04:24PM 45.7090 8.7300 360° North 225 259 3,000 1,020 Climbing FlightAware
04:24PM 45.7120 8.7300 360° North 230 265 3,000 1,380 Level FlightAware
04:24PM 45.7410 8.7480 23° Northeast 262 302 3,700 1,860 Climbing FlightAware
04:24PM 45.7470 8.7620 58° Northeast 264 304 4,100 2,880 Climbing FlightAware
04:25PM 45.7510 8.7870 77° East 267 307 4,900 3,000 Climbing FlightAware
04:25PM 45.7510 8.7950 90° East 269 310 5,100 2,760 Climbing FlightAware
04:25PM 45.7400 8.8350 111° Southeast 271 312 6,300 3,120 Climbing FlightAware
04:26PM 45.7200 8.8760 125° Southeast 275 316 7,700 2,700 Climbing FlightAware
04:26PM 45.7100 8.8940 129° Southeast 284 327 8,100 2,100 Climbing FlightAware
04:26PM 45.6880 8.9380 126° Southeast 293 337 9,300 2,280 Climbing FlightAware
04:27PM 45.6530 9.0070 126° Southeast 316 364 10,800 1,680 Climbing FlightAware
04:28PM 45.6120 9.0750 131° Southeast 351 404 11,600 1,620 Climbing FlightAware
04:28PM 45.5650 9.1480 133° Southeast 365 420 13,100 2,040 Climbing FlightAware
04:29PM 45.5190 9.2210 132° Southeast 375 432 14,500 2,100 Climbing FlightAware
04:30PM 45.4720 9.2950 132° Southeast 381 438 15,900 1,800 Climbing FlightAware
04:31PM 45.4170 9.3800 133° Southeast 398 458 17,100 1,380 Climbing FlightAware
04:31PM 45.3660 9.4600 132° Southeast 418 481 17,900 1,380 Climbing FlightAware
04:32PM 45.3040 9.5560 133° Southeast 429 494 19,100 1,320 Climbing FlightAware
04:33PM 45.2510 9.6390 132° Southeast 445 512 19,800 1,260 Climbing FlightAware
04:33PM 45.1880 9.7360 133° Southeast 451 519 20,900 2,400 Climbing FlightAware
04:34PM 45.1310 9.8230 133° Southeast 423 487 23,200 1,140 Climbing FlightAware
04:37PM 45.0470 10.2238 106° East  Level Estimated
04:38PM 45.0123 10.3870 107° East  Level Estimated
04:39PM 44.9773 10.5501 107° East  Level Estimated
04:40PM 44.9422 10.7129 107° East  Level Estimated
04:41PM 44.9068 10.8756 107° East  Level Estimated
04:42PM 44.8712 11.0380 107° East  Level Estimated
04:43PM 44.8353 11.2003 107° East  Level Estimated
04:44PM 44.7992 11.3624 107° East  Level Estimated
04:44PM 44.2510 11.0990 107° East 470 541 33,000  Level FlightAware
04:45PM 44.1910 11.1830 135° Southeast 475 547 33,000  Level FlightAware
04:45PM 44.1280 11.2700 135° Southeast 478 550 33,000  Level FlightAware
04:46PM 44.0550 11.3710 135° Southeast 478 550 33,000  Level FlightAware
04:47PM 43.9930 11.4560 135° Southeast 478 550 33,000  Level FlightAware
04:47PM 43.9330 11.5400 135° Southeast 481 554 33,000  Level FlightAware
04:48PM 43.8650 11.6440 132° Southeast 482 555 33,000  Level FlightAware
04:49PM 43.8180 11.7150 133° Southeast 480 552 33,000  Level FlightAware
04:49PM 43.7470 11.8250 132° Southeast 480 552 33,000  Level FlightAware
04:50PM 43.6770 11.9300 133° Southeast 480 552 33,000  Level FlightAware
04:51PM 43.6170 12.0210 132° Southeast 480 552 33,000  Level FlightAware
04:52PM 43.5520 12.1200 132° Southeast 480 552 33,000  Level FlightAware
04:52PM 43.4910 12.2110 133° Southeast 480 552 33,000  Level FlightAware
04:53PM 43.4310 12.3010 133° Southeast 481 554 33,000  Level FlightAware
04:54PM 43.3620 12.4050 132° Southeast 481 554 33,000  Level FlightAware
04:54PM 43.3050 12.4900 133° Southeast 481 554 33,000  Level FlightAware
04:55PM 43.2350 12.5940 133° Southeast 481 554 33,000  Level FlightAware
04:56PM 43.1760 12.6810 133° Southeast 481 554 33,000  Level FlightAware
04:56PM 43.1140 12.7720 133° Southeast 481 554 33,000  Level FlightAware
04:57PM 43.0460 12.8720 133° Southeast 481 554 33,000  Level FlightAware
04:58PM 42.9860 12.9610 133° Southeast 481 554 33,000  Level FlightAware
04:59PM 42.9180 13.0610 133° Southeast 480 552 33,000  Level FlightAware
04:59PM 42.8670 13.1520 127° Southeast 474 545 33,000  Level FlightAware
05:00PM 42.8230 13.2510 121° Southeast 472 543 33,000  Level FlightAware
05:00PM 42.7880 13.3230 124° Southeast 477 549 33,000  Level FlightAware
05:01PM 42.7040 13.4720 127° Southeast 476 548 33,000  Level FlightAware
05:02PM 42.6460 13.5750 127° Southeast 476 548 33,000  Level FlightAware
05:03PM 42.5920 13.6710 127° Southeast 477 549 33,000  Level FlightAware
05:04PM 42.5290 13.7820 128° Southeast 477 549 33,000  Level FlightAware
05:04PM 42.4700 13.8860 128° Southeast 479 551 33,000  Level FlightAware
05:05PM 42.4210 13.9710 128° Southeast 481 554 33,000  Level FlightAware
05:06PM 42.3450 14.1050 127° Southeast 484 557 33,000  Level FlightAware
05:06PM 42.2890 14.2010 128° Southeast 484 557 33,000  Level FlightAware
05:07PM 42.2360 14.2940 128° Southeast 484 557 33,000  Level FlightAware
05:08PM 42.1710 14.4050 128° Southeast 483 556 33,000  Level FlightAware
05:09PM 42.1160 14.5000 128° Southeast 482 555 33,000  Level FlightAware
05:09PM 42.0560 14.6030 128° Southeast 481 554 33,000  Level FlightAware
05:10PM 42.0020 14.6950 128° Southeast 481 554 33,000  Level FlightAware
05:11PM 41.9460 14.7910 128° Southeast 479 551 33,000  Level FlightAware
05:11PM 41.8840 14.8970 128° Southeast 480 552 33,000  Level FlightAware
05:12PM 41.8300 14.9880 129° Southeast 480 552 33,000  Level FlightAware
05:13PM 41.7670 15.0930 129° Southeast 481 554 33,000  Level FlightAware
05:13PM 41.7120 15.1870 128° Southeast 478 550 33,000  Level FlightAware
05:14PM 41.6580 15.2770 129° Southeast 478 550 33,000  Level FlightAware
05:15PM 41.5930 15.3860 129° Southeast 479 551 33,000  Level FlightAware
05:16PM 41.5330 15.4860 129° Southeast 478 550 33,000  Level FlightAware
05:16PM 41.4770 15.5790 129° Southeast 477 549 33,000  Level FlightAware
05:17PM 41.4230 15.6680 129° Southeast 475 547 33,000  Level FlightAware
05:18PM 41.3590 15.7750 129° Southeast 473 544 33,000  Level FlightAware
05:18PM 41.3040 15.8650 129° Southeast 474 545 33,000  Level FlightAware
05:19PM 41.2440 15.9630 129° Southeast 476 548 33,000  Level FlightAware
05:20PM 41.1880 16.0540 129° Southeast 477 549 33,000  Level FlightAware
05:20PM 41.1320 16.1460 129° Southeast 479 551 33,000  Level FlightAware
05:21PM 41.0680 16.2500 129° Southeast 479 551 33,000  Level FlightAware
05:22PM 41.0120 16.3410 129° Southeast 481 554 33,000  Level FlightAware
05:23PM 40.9480 16.4430 130° Southeast 483 556 33,000  Level FlightAware
05:23PM 40.8930 16.5320 129° Southeast 485 558 33,000  Level FlightAware
05:24PM 40.8350 16.6250 129° Southeast 485 558 33,000  Level FlightAware
05:25PM 40.7700 16.7290 130° Southeast 487 560 33,000  Level FlightAware
05:25PM 40.7120 16.8210 130° Southeast 487 560 33,000  Level FlightAware
05:26PM 40.6480 16.9230 130° Southeast 484 557 33,000  Level FlightAware
05:27PM 40.5930 17.0100 130° Southeast 482 555 33,000  Level FlightAware
05:27PM 40.5350 17.1020 130° Southeast 482 555 33,000  Level FlightAware
05:28PM 40.4690 17.2050 130° Southeast 483 556 33,000  Level FlightAware
05:29PM 40.4110 17.2960 130° Southeast 484 557 33,000  Level FlightAware
05:30PM 40.3490 17.3930 130° Southeast 483 556 33,000  Level FlightAware
05:30PM 40.2910 17.4830 130° Southeast 483 556 33,000  Level FlightAware
05:31PM 40.2340 17.5730 130° Southeast 483 556 33,000  Level FlightAware
05:32PM 40.1680 17.6750 130° Southeast 480 552 33,000  Level FlightAware
05:32PM 40.1100 17.7640 130° Southeast 480 552 33,000  Level FlightAware
05:33PM 40.0530 17.8520 130° Southeast 478 550 33,000  Level FlightAware
05:34PM 39.9910 17.9480 130° Southeast 477 549 33,000  Level FlightAware
05:34PM 39.9340 18.0350 130° Southeast 474 545 33,000  Level FlightAware
05:35PM 39.8720 18.1300 130° Southeast 471 542 33,000  Level FlightAware
05:36PM 39.8460 18.1700 130° Southeast 471 542 33,000  Level FlightAware
05:36PM 39.7960 18.2450 131° Southeast 468 539 33,000 180 Level FlightAware
05:37PM 39.7230 18.3490 132° Southeast 476 548 33,300 480 Climbing FlightAware
05:38PM 39.6560 18.4280 138° Southeast 482 555 33,800 900 Climbing FlightAware
05:39PM 39.5840 18.5130 138° Southeast 483 556 34,500 900 Climbing FlightAware
05:39PM 39.5250 18.5820 138° Southeast 470 541 35,000 300 Climbing FlightAware
05:40PM 39.4300 18.6960 137° Southeast 467 537 35,000  Level FlightAware
05:41PM 39.3760 18.7600 137° Southeast 467 537 35,000  Level FlightAware
05:42PM 39.3220 18.8250 137° Southeast 467 537 35,000 60 Level FlightAware
05:43PM 39.1770 18.9910 138° Southeast 480 552 35,100 60 Climbing FlightAware
05:43PM 39.1220 19.0570 137° Southeast 480 552 35,100  Level FlightAware
05:44PM 39.0950 19.0840 142° Southeast 480 552 35,100 -60 Level FlightAware
05:45PM 38.9850 19.2100 138° Southeast 480 552 35,000 -60 Descending FlightAware
05:46PM 38.8930 19.3150 138° Southeast 481 554 35,000  Level FlightAware
05:47PM 38.7690 19.4580 138° Southeast 475 547 35,000  Level FlightAware
05:47PM 38.7020 19.5340 138° Southeast 476 548 35,000  Level FlightAware
05:48PM 38.6150 19.6350 138° Southeast 477 549 35,000  Level FlightAware
05:49PM 38.5340 19.7240 139° Southeast 481 554 35,000  Level FlightAware
05:50PM 38.4680 19.7980 139° Southeast 481 554 35,000  Level FlightAware
05:50PM 38.4360 19.8340 139° Southeast 487 560 35,000  Level FlightAware
05:51PM 38.3570 19.9230 139° Southeast 488 562 35,000  Level FlightAware
05:52PM 38.2960 19.9910 139° Southeast 490 564 35,000  Level FlightAware
05:52PM 38.1730 20.1290 139° Southeast 490 564 35,000  Level FlightAware
05:53PM 38.1070 20.2030 139° Southeast 489 563 35,000 60 Level FlightAware
05:54PM 38.0400 20.2770 139° Southeast 486 559 35,100  Climbing FlightAware
05:55PM 37.9680 20.3570 139° Southeast 477 549 35,000 -120 Descending FlightAware
05:55PM 37.8870 20.4460 139° Southeast 475 547 35,000  Level FlightAware
05:56PM 37.8200 20.5190 139° Southeast 480 552 35,000  Level FlightAware
05:57PM 37.7530 20.5940 138° Southeast 479 551 35,000  Level FlightAware
05:57PM 37.6900 20.6620 139° Southeast 479 551 35,000  Level FlightAware
05:58PM 37.6090 20.7510 139° Southeast 479 551 35,000  Level FlightAware
05:59PM 37.5370 20.8290 139° Southeast 479 551 35,000  Level FlightAware
06:00PM 37.4550 20.9190 139° Southeast 480 552 35,000  Level FlightAware
06:01PM 37.3500 21.0320 139° Southeast 484 557 35,000  Level FlightAware
06:01PM 37.2690 21.1200 139° Southeast 487 560 35,000  Level FlightAware
06:02PM 37.1860 21.2080 140° Southeast 490 564 35,000  Level FlightAware
06:03PM 37.1090 21.2910 139° Southeast 492 566 35,000  Level FlightAware
06:04PM 37.0550 21.3500 139° Southeast 492 566 35,000  Level FlightAware
06:04PM 36.9820 21.4290 139° Southeast 492 566 35,000  Level FlightAware
06:05PM 36.8930 21.5220 140° Southeast 492 566 35,000  Level FlightAware
06:06PM 36.8150 21.6050 140° Southeast 491 565 35,000  Level FlightAware
06:06PM 36.7470 21.6760 140° Southeast 491 565 35,000  Level FlightAware
06:07PM 36.6770 21.7510 139° Southeast 488 562 35,000  Level FlightAware
06:08PM 36.5720 21.8610 140° Southeast 489 563 35,000  Level FlightAware
06:09PM 36.5020 21.9340 140° Southeast 492 566 35,000  Level FlightAware
06:09PM 36.4370 22.0030 139° Southeast 493 567 35,000  Level FlightAware
06:10PM 36.3600 22.0820 140° Southeast 494 568 35,000  Level FlightAware
06:11PM 36.2850 22.1610 140° Southeast 492 566 35,000  Level FlightAware
06:12PM 36.2140 22.2350 140° Southeast 494 568 35,000  Level FlightAware
06:13PM 36.1190 22.3360 139° Southeast 496 571 35,000  Level FlightAware
06:13PM 36.0600 22.3990 139° Southeast 496 571 35,000  Level FlightAware
06:14PM 36.0010 22.4620 139° Southeast 496 571 35,000  Level FlightAware
06:15PM 35.9430 22.5250 139° Southeast 496 571 35,000  Level FlightAware
06:15PM 35.8840 22.5890 139° Southeast 496 571 35,000  Level FlightAware
06:16PM 35.8100 22.6680 139° Southeast 496 571 35,000  Level FlightAware
06:17PM 35.7510 22.7310 139° Southeast 496 571 35,000  Level FlightAware
06:17PM 35.6920 22.7940 139° Southeast 496 571 35,000  Level FlightAware
06:18PM 35.6330 22.8570 139° Southeast 496 571 35,000  Level FlightAware
06:19PM 35.5750 22.9200 139° Southeast 496 571 35,000  Level FlightAware
06:20PM 35.5010 22.9980 139° Southeast 496 571 35,000  Level FlightAware
06:20PM 35.4420 23.0610 139° Southeast 496 571 35,000  Level FlightAware
06:21PM 35.3830 23.1240 139° Southeast 496 571 35,000  Level FlightAware
06:22PM 35.3240 23.1870 139° Southeast 496 571 35,000  Level FlightAware
06:24PM 35.2645 23.4655 105° East  Level Estimated
06:25PM 35.2337 23.6081 105° East  Level Estimated
06:26PM 35.2028 23.7506 105° East  Level Estimated
06:27PM 35.1717 23.8930 105° East  Level Estimated
06:28PM 35.1404 24.0354 105° East  Level Estimated
06:29PM 35.1090 24.1776 105° East  Level Estimated
06:30PM 35.0774 24.3197 105° East  Level Estimated
06:31PM 35.0457 24.4616 105° East  Level Estimated
06:32PM 35.0137 24.6035 105° East  Level Estimated
06:33PM 34.9817 24.7453 105° East  Level Estimated
06:34PM 34.9494 24.8869 105° East  Level Estimated
06:35PM 34.9170 25.0285 106° East  Level Estimated
06:36PM 34.8844 25.1699 106° East  Level Estimated
06:37PM 34.8516 25.3112 106° East  Level Estimated
06:38PM 34.8187 25.4524 106° East  Level Estimated
06:39PM 34.7857 25.5935 106° East  Level Estimated
06:40PM 34.7524 25.7345 106° East  Level Estimated
06:41PM 34.7190 25.8753 106° East  Level Estimated
06:42PM 34.6855 26.0161 106° East  Level Estimated
06:43PM 34.6517 26.1567 106° East  Level Estimated
06:44PM 34.6179 26.2972 106° East  Level Estimated
06:45PM 34.5838 26.4376 106° East  Level Estimated
06:46PM 34.5496 26.5779 106° East  Level Estimated
06:47PM 34.5152 26.7181 107° East  Level Estimated
06:48PM 34.4807 26.8581 107° East  Level Estimated
06:49PM 34.4460 26.9981 107° East  Level Estimated
06:50PM 34.4112 27.1379 107° East  Level Estimated
06:51PM 34.3762 27.2776 107° East  Level Estimated
06:52PM 34.3410 27.4172 107° East  Level Estimated
06:53PM 34.3057 27.5567 107° East  Level Estimated
06:54PM 34.2702 27.6960 107° East  Level Estimated
06:55PM 34.2346 27.8353 107° East  Level Estimated
06:56PM 34.1988 27.9744 107° East  Level Estimated
06:57PM 34.1628 28.1134 107° East  Level Estimated
06:58PM 34.1267 28.2523 107° East  Level Estimated
06:59PM 34.0905 28.3910 107° East  Level Estimated
07:00PM 34.0541 28.5297 108° East  Level Estimated
07:01PM 34.0175 28.6682 108° East  Level Estimated
07:02PM 33.9808 28.8066 108° East  Level Estimated
07:03PM 33.9439 28.9449 108° East  Level Estimated
07:04PM 33.9068 29.0831 108° East  Level Estimated
07:05PM 33.8696 29.2211 108° East  Level Estimated
07:06PM 33.8323 29.3591 108° East  Level Estimated
07:07PM 33.7948 29.4969 108° East  Level Estimated
07:08PM 33.7571 29.6346 108° East  Level Estimated
07:09PM 33.7193 29.7721 108° East  Level Estimated
07:10PM 33.6814 29.9095 108° East  Level Estimated
07:11PM 33.6433 30.0469 108° East  Level Estimated
07:12PM 33.6050 30.1841 108° East  Level Estimated
07:13PM 33.5666 30.3211 109° East  Level Estimated
07:14PM 33.5280 30.4581 109° East  Level Estimated
07:15PM 33.4893 30.5949 109° East  Level Estimated
07:16PM 33.4505 30.7316 109° East  Level Estimated
07:17PM 33.4114 30.8682 109° East  Level Estimated
07:18PM 33.3723 31.0047 109° East  Level Estimated
07:19PM 33.3330 31.1410 109° East  Level Estimated
07:20PM 33.2935 31.2773 109° East  Level Estimated
07:21PM 33.2539 31.4133 109° East  Level Estimated
07:22PM 33.2141 31.5493 109° East  Level Estimated
07:23PM 33.1742 31.6852 109° East  Level Estimated
07:24PM 33.1342 31.8209 109° East  Level Estimated
07:25PM 33.0940 31.9565 109° East  Level Estimated
07:26PM 33.0536 32.0920 110° East  Level Estimated
07:27PM 33.0131 32.2273 110° East  Level Estimated
07:28PM 32.9725 32.3625 110° East  Level Estimated
07:29PM 32.9317 32.4976 110° East  Level Estimated
07:30PM 32.8908 32.6326 110° East  Level Estimated
07:31PM 32.8497 32.7675 110° East  Level Estimated
07:32PM 32.8085 32.9022 110° East  Level Estimated
07:33PM 32.7671 33.0368 110° East  Level Estimated
07:34PM 32.7256 33.1713 110° East  Level Estimated
07:35PM 32.6840 33.3056 110° East  Level Estimated
07:36PM 32.6422 33.4399 110° East  Level Estimated
07:37PM 32.6002 33.5740 110° East  Level Estimated
07:38PM 32.5582 33.7079 110° East  Level Estimated
07:39PM 32.5159 33.8418 110° East  Level Estimated
07:40PM 32.4736 33.9755 111° Southeast  Level Estimated
07:41PM 32.4311 34.1091 111° Southeast  Level Estimated
07:42PM 32.3884 34.2426 111° Southeast  Level Estimated
07:43PM 32.3456 34.3759 111° Southeast  Level Estimated
07:44PM 32.3027 34.5091 111° Southeast  Level Estimated
07:45PM 32.2596 34.6422 111° Southeast  Level Estimated
07:46PM 32.2164 34.7752 111° Southeast  Level Estimated
07:47PM 32.1731 34.9080 111° Southeast  Level Estimated
07:48PM 32.1296 35.0407 111° Southeast  Level Estimated
07:49PM 32.0860 35.1733 111° Southeast  Level Estimated
07:50PM 32.0422 35.3058 111° Southeast  Level Estimated
07:51PM 31.9983 35.4381 111° Southeast  Level Estimated
07:52PM 31.9543 35.5703 111° Southeast  Level Estimated
07:53PM 31.9101 35.7024 111° Southeast  Level Estimated
07:54PM 31.8658 35.8344 112° Southeast  Level Estimated
07:55PM 31.8214 35.9662 112° Southeast  Level Estimated
07:56PM 31.7768 36.0979 112° Southeast  Level Estimated
07:57PM 31.7321 36.2295 112° Southeast  Level Estimated
07:58PM 31.6873 36.3609 112° Southeast  Level Estimated
07:59PM 31.6423 36.4922 112° Southeast  Level Estimated
08:00PM 31.5972 36.6234 112° Southeast  Level Estimated
08:01PM 31.5519 36.7545 112° Southeast  Level Estimated
08:02PM 31.5065 36.8854 112° Southeast  Level Estimated
08:03PM 31.4610 37.0162 112° Southeast  Level Estimated
08:04PM 31.4153 37.1469 112° Southeast  Level Estimated
08:05PM 31.3696 37.2774 112° Southeast  Level Estimated
08:06PM 31.3236 37.4079 112° Southeast  Level Estimated
08:07PM 31.2776 37.5382 112° Southeast  Level Estimated
08:08PM 31.2314 37.6683 113° Southeast  Level Estimated
08:09PM 31.1851 37.7984 113° Southeast  Level Estimated
08:10PM 31.1387 37.9283 113° Southeast  Level Estimated
08:11PM 31.0921 38.0581 113° Southeast  Level Estimated
08:12PM 31.0454 38.1877 113° Southeast  Level Estimated
08:13PM 30.9986 38.3173 113° Southeast  Level Estimated
08:14PM 30.9516 38.4467 113° Southeast  Level Estimated
08:15PM 30.9045 38.5760 113° Southeast  Level Estimated
08:16PM 30.8573 38.7051 113° Southeast  Level Estimated
08:17PM 30.8099 38.8341 113° Southeast  Level Estimated
08:18PM 30.7625 38.9630 113° Southeast  Level Estimated
08:19PM 30.7149 39.0918 113° Southeast  Level Estimated
08:20PM 30.6671 39.2204 113° Southeast  Level Estimated
08:21PM 30.6193 39.3490 113° Southeast  Level Estimated
08:22PM 30.5713 39.4773 113° Southeast  Level Estimated
08:23PM 30.5232 39.6056 114° Southeast  Level Estimated
08:24PM 30.4750 39.7337 114° Southeast  Level Estimated
08:25PM 30.4266 39.8618 114° Southeast  Level Estimated
08:26PM 30.3781 39.9896 114° Southeast  Level Estimated
08:27PM 30.3295 40.1174 114° Southeast  Level Estimated
08:28PM 30.2808 40.2450 114° Southeast  Level Estimated
08:29PM 30.2319 40.3725 114° Southeast  Level Estimated
08:30PM 30.1830 40.4999 114° Southeast  Level Estimated
08:31PM 30.1339 40.6271 114° Southeast  Level Estimated
08:32PM 30.0846 40.7542 114° Southeast  Level Estimated
08:33PM 30.0353 40.8812 114° Southeast  Level Estimated
08:34PM 29.9858 41.0081 114° Southeast  Level Estimated
08:35PM 29.9362 41.1348 114° Southeast  Level Estimated
08:36PM 29.8865 41.2615 114° Southeast  Level Estimated
08:37PM 29.8367 41.3880 114° Southeast  Level Estimated
08:38PM 29.7868 41.5143 114° Southeast  Level Estimated
08:39PM 29.7367 41.6405 115° Southeast  Level Estimated
08:40PM 29.6865 41.7667 115° Southeast  Level Estimated
08:41PM 29.6362 41.8926 115° Southeast  Level Estimated
08:42PM 29.5858 42.0185 115° Southeast  Level Estimated
08:43PM 29.5352 42.1442 115° Southeast  Level Estimated
08:44PM 29.4845 42.2698 115° Southeast  Level Estimated
08:45PM 29.4338 42.3953 115° Southeast  Level Estimated
08:46PM 29.3829 42.5206 115° Southeast  Level Estimated
08:47PM 29.3318 42.6459 115° Southeast  Level Estimated
08:48PM 29.2807 42.7710 115° Southeast  Level Estimated
08:49PM 29.2295 42.8960 115° Southeast  Level Estimated
08:50PM 29.1781 43.0208 115° Southeast  Level Estimated
08:51PM 29.1266 43.1455 115° Southeast  Level Estimated
08:52PM 29.0750 43.2701 115° Southeast  Level Estimated
08:53PM 29.0233 43.3946 115° Southeast  Level Estimated
08:53PM 26.0950 44.8310 116° Southeast 546 628 35,000  Level FlightAware
08:54PM 28.9715 43.5190 115° Southeast  Level Estimated
08:55PM 28.9195 43.6432 116° Southeast  Level Estimated
08:55PM 26.0290 45.1900 101° East 545 627 35,000  Level FlightAware
08:58PM 25.9978 45.5054 96° East  Level Estimated
08:59PM 25.9844 45.6386 96° East  Level Estimated
09:00PM 25.9708 45.7717 96° East  Level Estimated
09:01PM 25.9572 45.9049 96° East  Level Estimated
09:02PM 25.9434 46.0380 97° East  Level Estimated
09:03PM 25.9295 46.1711 97° East  Level Estimated
09:04PM 25.9155 46.3041 97° East  Level Estimated
09:05PM 25.9014 46.4371 97° East  Level Estimated
09:06PM 25.8871 46.5701 97° East  Level Estimated
09:07PM 25.8727 46.7031 97° East  Level Estimated
09:08PM 25.8582 46.8360 97° East  Level Estimated
09:09PM 25.8436 46.9689 97° East  Level Estimated
09:10PM 25.8288 47.1017 97° East  Level Estimated
09:11PM 25.8140 47.2346 97° East  Level Estimated
09:12PM 25.7990 47.3674 97° East  Level Estimated
09:13PM 25.7839 47.5001 97° East  Level Estimated
09:14PM 25.7687 47.6328 97° East  Level Estimated
09:15PM 25.7533 47.7655 97° East  Level Estimated
09:16PM 25.7379 47.8982 97° East  Level Estimated
09:16PM 25.3460 48.6550 97° East 542 624 35,000  Level FlightAware
09:19PM 25.3398 48.9593 91° East  Level Estimated
09:20PM 25.3369 49.0926 91° East  Level Estimated
09:20PM 25.2610 49.3230 91° East 550 633 31,800  Level FlightAware
09:22PM 25.2810 49.5370 84° East 551 634 30,600 -660 Descending FlightAware
09:22PM 25.2870 49.6330 86° East 551 634 30,600  Level FlightAware
09:23PM 25.2930 49.7280 86° East 551 634 30,600  Level FlightAware
09:24PM 25.2990 49.8240 86° East 551 634 30,600  Level FlightAware
09:24PM 25.3070 49.9440 86° East 551 634 30,600  Level FlightAware
09:25PM 25.3130 50.0390 86° East 551 634 30,600  Level FlightAware
09:26PM 25.3190 50.1350 86° East 551 634 30,600  Level FlightAware
09:26PM 25.3250 50.2310 86° East 551 634 30,600  Level FlightAware
09:27PM 25.3330 50.3500 86° East 551 634 30,600  Level FlightAware
09:28PM 25.3390 50.4460 86° East 551 634 30,600  Level FlightAware
09:29PM 25.3450 50.5410 86° East 551 634 30,600 -9,000 Level FlightAware
09:29PM 25.2630 50.6810 123° Southeast 412 474 17,100 -7,080 Descending FlightAware
09:31PM 25.2650 50.8410 89° East 374 430 15,300 -1,200 Descending FlightAware
09:31PM 25.2670 50.9160 88° East 350 403 14,700 -1,080 Descending FlightAware
09:32PM 25.2670 50.9820 90° East 339 390 13,900 -1,380 Descending FlightAware
09:33PM 25.2680 51.0600 89° East 332 382 12,800 -1,320 Descending FlightAware
09:33PM 25.2690 51.1310 89° East 333 383 12,100 -1,080 Descending FlightAware
09:34PM 25.2700 51.1960 89° East 328 377 11,400 -1,080 Descending FlightAware
09:35PM 25.2700 51.2620 90° East 324 373 10,700 -1,020 Descending FlightAware
09:36PM 25.2310 51.3440 118° Southeast 293 337 9,700 -840 Descending FlightAware
09:36PM 25.2080 51.3780 127° Southeast 271 312 9,500 -720 Descending FlightAware
09:37PM 25.1850 51.4100 128° Southeast 252 290 9,000 -1,200 Descending FlightAware
09:37PM 25.1680 51.4350 127° Southeast 250 288 8,400 -1,320 Descending FlightAware
09:38PM 25.1460 51.4660 128° Southeast 242 278 7,800 -1,380 Descending FlightAware
09:38PM 25.1170 51.5020 132° Southeast 229 264 6,800 -1,500 Descending FlightAware
09:39PM 25.0920 51.5160 153° Southeast 218 251 6,100 -1,320 Descending FlightAware
09:40PM 25.0530 51.5340 157° South 214 246 5,300 -960 Descending FlightAware
09:40PM 25.0260 51.5460 158° South 196 226 5,000 -960 Descending FlightAware
09:41PM 25.0030 51.5730 133° Southeast 193 222 4,200 -1,140 Descending FlightAware
09:41PM 25.0140 51.6000 66° East 189 217 3,700 -720 Descending FlightAware
09:42PM 25.0420 51.6290 43° Northeast 193 222 3,400 -240 Descending FlightAware
09:42PM 25.0650 51.6470 35° Northeast 177 204 3,400  Level FlightAware
09:43PM 25.0810 51.6430 347° North 173 199 3,400 -360 Level FlightAware
09:43PM 25.1010 51.6350 340° North 173 199 3,100 -840 Descending FlightAware
09:44PM 25.1170 51.6290 341° North 172 198 2,700 -900 Descending FlightAware
09:44PM 25.1430 51.6170 337° Northwest 158 182 2,300 -840 Descending FlightAware
09:45PM 25.1630 51.6080 338° Northwest 128 147 1,800 -780 Descending FlightAware
09:45PM 25.1760 51.6030 341° North 121 139 1,600 -600 Descending FlightAware
09:46PM 25.1930 51.5950 337° Northwest 126 145 1,300 -720 Descending FlightAware
09:46PM 25.1960 51.5940 343° North 127 146 1,200 -1,200 Descending FlightAware
09:48PM 25.2611 51.5651 338° Northwest  Level Estimated
09:49PM 25.2611 51.5651 216° Southwest  Level Estimated
09:50PM 25.2611 51.5651 216° Southwest  Level Estimated
09:51PM 25.2611 51.5651 216° Southwest  Level Estimated
09:52PM 25.2611 51.5651 216° Southwest  Level Estimated
09:53PM 25.2611 51.5651 216° Southwest  Level Estimated
09:54PM 25.2611 51.5651 216° Southwest  Level Estimated
09:55PM 25.2611 51.5651 216° Southwest  Level Estimated
09:56PM 25.2611 51.5651 216° Southwest  Level Estimated
09:57PM 25.2611 51.5651 216° Southwest  Level Estimated
09:58PM 25.2611 51.5651 216° Southwest  Level Estimated
09:59PM 25.2611 51.5651 216° Southwest  Level Estimated
10:00PM 25.2611 51.5651 216° Southwest  Level Estimated
10:01PM 25.2611 51.5651 216° Southwest  Level Estimated
10:02PM 25.2611 51.5651 216° Southwest  Level Estimated
10:03PM 25.2611 51.5651 216° Southwest  Level Estimated
10:04PM 25.2611 51.5651 216° Southwest  Level Estimated
10:05PM 25.2611 51.5651 216° Southwest  Level Estimated
10:06PM 25.2611 51.5651 216° Southwest  Level Estimated
10:07PM 25.2611 51.5651 216° Southwest  Level Estimated
10:08PM 25.2611 51.5651 216° Southwest  Level Estimated
10:09PM 25.2611 51.5651 216° Southwest  Level Estimated